Pioche, Nevada Weather observations

Data are for observation ending at time listed.
 Day   Time    Ave.   Ave.  Ave.  Vector   Max.   Stn.    Total    Solar   Ave.  
  of    of     Air    Rel.  Wind   Wind    Wind   Baro.  Precip.   Rad.    Soil  
Year   Day     Temp.  Hum.  Speed  Dir.    Gust   Pres.                    Temp. 
2016   (PST)    F      %     mph   deg.    mph     mb.     in.     W/m2     F   
------------------------------------------------------------------------------
 147   10:20   58.5    35    7.1   285     12.1   818.7    0.00     201    62.7
 147   10:30   57.9    35    7.7   293     11.9   818.7    0.00     192    62.8
 147   10:40   57.8    36    6.5   283     10.9   818.7    0.00     233    62.8
 147   10:50   58.0    34    6.0   307     11.6   818.8    0.00     286    62.9
 147   11:00   58.4    37    4.2   332     10.0   818.8    0.00     421    62.9
 147   11:10   59.0    35    5.9   332     14.8   818.9    0.00     736    63.0
 147   11:20   60.4    33    3.8   309      9.5   819.0    0.00     680    63.0
 147   11:30   59.7    38    8.7   296     15.0   819.0    0.00     775    63.1
 147   11:40   60.0    38    6.6   294     11.6   819.0    0.00     849    63.1
 147   11:50   60.2    35    5.7   276     12.0   819.0    0.00    1003    63.2
 147   12:00   61.7    31    6.1   290     11.8   818.9    0.00    1194    63.2
 147   12:10   61.6    30    4.9   304     12.8   818.8    0.00    1153    63.3
 147   12:20   62.6    28    6.2   289     14.9   818.8    0.00    1147    63.4
 147   12:30   63.2    27    8.7   284     17.0   818.6    0.00    1238    63.4
 147   12:40   62.3    29    9.3   297     16.6   818.6    0.00    1019    63.5
 147   12:50   62.9    30    9.5   296     15.0   818.6    0.00    1208    63.5
 147   13:00   62.3    30   11.2   288     18.3   818.5    0.00     850    63.6
 147   13:10   60.7    31   10.1   294     16.1   818.5    0.00     462    63.7
 147   13:20   60.8    31    7.5   288     14.5   818.5    0.00     535    63.8
 147   13:30   62.2    28    6.9   293     13.2   818.4    0.00     671    63.9
 147   13:40   63.4    27    5.7   295     14.5   818.3    0.00    1051    64.0
 147   13:50   64.1    24    6.6   323     12.1   818.2    0.00     949    64.1
 147   14:00   65.2    24    6.0   314     11.9   818.2    0.00     991    64.1
 147   14:10   66.2    23    4.4   332     12.5   818.2    0.00     971    64.3
 147   14:20   66.3    23    3.9   323     10.9   818.1    0.00     882    64.3
 147   14:30   64.7    25    5.8   327     13.5   818.0    0.00     529    64.5
 147   14:40   65.0    26    7.2   291     16.3   817.9    0.00     824    64.6
 147   14:50   63.9    27    4.7   294     10.2   817.8    0.00     264    64.8
 147   15:00   62.8    28    5.1   316     11.5   817.7    0.00     445    64.9
 147   15:10   64.7    26    1.9   101      5.6   817.6    0.00     814    65.0
 147   15:20   64.3    26    3.1   116      6.1   817.6    0.00     622    65.1
 147   15:30   65.3    24    6.7   305     12.6   817.5    0.00     541    65.3
 147   15:40   64.7    25    5.1   294     11.0   817.6    0.00     420    65.5
 147   15:50   64.0    27    7.4   294     13.8   817.5    0.00     239    65.6
 147   16:00   63.1    30   10.0   297     21.1   817.6    0.00     154    65.8
 147   16:10   59.9    38   11.2   284     17.1   817.7    0.00     124    66.0
 147   16:20   59.3    42   10.8   282     16.5   817.7    0.00     248    66.1
 147   16:30   59.4    38   11.2   278     19.8   817.7    0.00     122    66.2
 147   16:40   59.3    35    9.9   278     15.2   817.6    0.00     101    66.3
 147   16:50   59.5    34    8.4   284     14.8   817.7    0.00     102    66.5
 147   17:00   59.6    34    7.8   286     14.3   817.7    0.00     105    66.6
 147   17:10   60.2    33    7.7   292     13.0   817.7    0.00     137    66.7
 147   17:20   60.5    33   10.7   316     20.2   817.8    0.00     125    66.7
 147   17:30   59.3    38   11.0   319     17.3   818.0    0.00     138    66.8
 147   17:40   59.1    38    8.9   317     13.0   818.0    0.00      94    66.8
 147   17:50   59.0    37    8.9   316     12.9   818.1    0.00      80    66.9
 147   18:00   59.8    36    7.3   311     11.5   818.1    0.00     156    66.9
 147   18:10   60.3    35    7.0   308     12.2   818.1    0.00     143    66.9
 147   18:20   60.0    37    5.1   303      8.7   818.2    0.00      98    66.9
 147   18:30   59.5    38    5.5   307      7.7   818.2    0.00      53    66.9
 147   18:40   58.4    41    4.4   302      7.3   818.2    0.00      15    67.0
 147   18:50   57.6    42    2.7   309      6.4   818.3    0.00       9    67.0
 147   19:00   57.4    40    1.4    63      4.0   818.3    0.00       2    67.0
 147   19:10   56.8    42    2.9    89      5.6   818.3    0.00       0    67.0
 147   19:20   56.6    45    2.3    85      4.8   818.3    0.00       0    67.0
 147   19:30   56.4    44    0.7   106      2.2   818.4    0.00       0    67.0
 147   19:40   55.9    44    1.0   119      2.3   818.4    0.00       0    67.0
 147   19:50   55.2    45    0.4   170      1.2   818.5    0.00       0    67.0
 147   20:00   55.0    46    1.1   118      1.9   818.5    0.00       0    67.0
 147   20:10   55.7    44    1.9   142      3.0   818.6    0.00       0    67.0
 147   20:20   55.6    44    2.4   134      3.7   818.8    0.00       0    66.9
 147   20:30   55.2    45    3.1   143      3.9   818.8    0.00       0    66.9
 147   20:40   55.3    44    2.9   153      5.5   818.7    0.00       0    66.9
 147   20:50   55.4    43    4.9   142      8.3   818.7    0.00       0    66.8
 147   21:00   54.9    45    7.1   139     11.2   818.7    0.00       0    66.8
 147   21:10   54.1    47    7.0   147     10.4   818.7    0.00       0    66.8
 147   21:20   53.6    49    7.5   149     10.2   818.6    0.00       0    66.8
 147   21:30   53.5    49    6.5   148     10.2   818.5    0.00       0    66.7
 147   21:40   53.5    49    5.0   151      8.6   818.5    0.00       0    66.7
 147   21:50   53.3    49    3.2   139      8.1   818.4    0.00       0    66.7
 147   22:00   53.1    50    3.1   150      7.2   818.4    0.00       0    66.6
 147   22:10   52.3    51    3.0   251      6.3   818.4    0.00       0    66.5
 147   22:20   49.2    57    1.5   263      4.1   818.4    0.00       0    66.5
 147   22:30   48.5    58    1.4   261      4.2   818.4    0.00       0    66.5
 147   22:40   48.6    58    0.6   288      2.0   818.4    0.00       0    66.4
 147   22:50   48.1    61    0.4   277      1.6   818.3    0.00       0    66.4
 147   23:00   47.5    64    0.7   206      1.6   818.3    0.00       0    66.3
 147   23:10   47.9    61    0.4   170      1.0   818.3    0.00       0    66.2
 147   23:20   48.2    58    0.7   153      1.5   818.4    0.00       0    66.2
 147   23:30   47.9    59    3.0   155      4.3   818.4    0.00       0    66.1
 147   23:40   47.7    59    4.4   152      5.2   818.5    0.00       0    66.1
 147   23:50   47.8    59    3.1   149      4.0   818.5    0.00       0    66.0
 148    0:00   47.6    63    0.6   202      1.8   818.5    0.00       0    65.9
 148    0:10   47.2    65    0.6   211      1.7   818.5    0.00       0    65.9
 148    0:20   47.5    62    1.3   274      2.3   818.4    0.00       0    65.8
 148    0:30   48.6    59    1.1   306      2.0   818.4    0.00       0    65.7
 148    0:40   48.3    65    1.0   265      1.7   818.4    0.00       0    65.6
 148    0:50   47.7    70    1.2   278      2.6   818.3    0.00       0    65.6
 148    1:00   47.8    72    0.5   249      2.2   818.2    0.00       0    65.5
 148    1:10   47.7    75    0.1   247      1.5   818.2    0.00       0    65.4
 148    1:20   48.4    66    1.1   102      2.6   818.1    0.00       0    65.4
 148    1:30   48.8    60    1.3   120      3.0   818.1    0.00       0    65.3
 148    1:40   49.2    60    0.5   302      1.9   818.1    0.00       0    65.2
 148    1:50   48.5    63    0.5   311      2.2   818.1    0.00       0    65.2
 148    2:00   46.9    60    1.4   310      2.8   818.2    0.00       0    65.1
 148    2:10   46.1    63    2.5   271      4.3   818.1    0.00       0    65.1
 148    2:20   45.9    67    1.3   230      3.3   818.1    0.00       0    65.0
 148    2:30   46.8    65    1.5   249      5.3   818.1    0.00       0    65.0
 148    2:40   48.4    60    2.8   272      5.4   818.1    0.00       0    64.9
 148    2:50   49.0    58    3.0   272      5.1   818.1    0.00       0    64.8
 148    3:00   49.2    57    2.9   291      5.3   818.1    0.00       0    64.8
 148    3:10   49.0    58    3.1   283      4.5   818.1    0.00       0    64.7
 148    3:20   49.1    58    3.7   276      6.1   818.1    0.00       0    64.6
 148    3:30   49.1    57    2.7   277      4.4   818.1    0.00       0    64.6
 148    3:40   49.2    56    2.1   272      4.5   818.1    0.00       0    64.5
 148    3:50   49.2    56    2.0   298      4.5   818.1    0.00       0    64.5
 148    4:00   48.5    57    2.1   305      3.6   818.1    0.00       0    64.4
 148    4:10   47.3    61    1.5   243      3.7   818.1    0.00       0    64.4
 148    4:20   48.3    57    3.4   270      7.3   818.2    0.00       2    64.3
 148    4:30   49.5    55    4.3   275      7.4   818.2    0.00       6    64.3
 148    4:40   49.9    54    5.0   272      8.7   818.2    0.00      11    64.2
 148    4:50   50.1    53    4.3   271      8.4   818.3    0.00      18    64.1
 148    5:00   50.3    53    3.0   273      4.9   818.4    0.00      23    64.1
 148    5:10   50.5    52    3.7   273      6.0   818.5    0.00      21    64.0
 148    5:20   50.4    53    2.8   275      5.4   818.5    0.00      23    64.0
 148    5:30   50.9    52    3.4   281      5.8   818.5    0.00      27    63.9
 148    5:40   51.5    52    3.2   297      5.0   818.5    0.00      31    63.9
 148    5:50   51.4    53    0.7   340      2.9   818.7    0.00      37    63.8
 148    6:00   50.3    55    0.4   352      2.3   818.7    0.00     209    63.8
 148    6:10   50.9    54    1.3   319      3.3   818.7    0.00     288    63.7
 148    6:20   54.1    49    0.9   280      3.1   818.8    0.00     345    63.7
 148    6:30   55.9    45    1.6   314      3.0   818.9    0.00     383    63.6
 148    6:40   56.2    45    3.0   321      7.2   818.9    0.00     419    63.6
 148    6:50   56.3    44    2.5   316      5.0   818.9    0.00     456    63.5
 148    7:00   57.2    42    2.2   324      4.7   819.0    0.00     489    63.5
 148    7:10   58.0    42    3.3   310      6.1   819.0    0.00     524    63.4
 148    7:20   58.3    40    1.9   310      5.0   819.0    0.00     560    63.4
 148    7:30   59.5    38    2.8   307      6.9   819.0    0.00     596    63.4
 148    7:40   59.0    39    3.0   305      5.8   819.1    0.00     632    63.3
 148    7:50   59.8    37    2.3   316      6.4   819.1    0.00     667    63.3
 148    8:00   61.7    35    1.2   268      3.1   819.0    0.00     707    63.3
 148    8:10   63.1    33    2.1   302      6.1   819.0    0.00     746    63.3
 148    8:20   62.3    32    2.0   308      4.5   818.9    0.00     787    63.2
 148    8:30   62.9    31    2.2    98      5.6   818.9    0.00     818    63.2
 148    8:40   63.8    30    1.5    55      7.5   818.7    0.00     852    63.2
 148    8:50   64.7    27    1.5    52      4.7   818.6    0.00     926    63.2
 148    9:00   65.9    26    2.1   323      7.2   818.6    0.00    1026    63.2
 148    9:10   66.4    27    2.0   185      5.3   818.5    0.00     544    63.2
 148    9:20   62.6    33    4.4   180      8.3   818.5    0.00     244    63.1
 148    9:30   61.4    33    2.7   213      6.2   818.4    0.00     200    63.1
 148    9:40   61.2    32    4.0    90      8.6   818.4    0.00     231    63.1
 148    9:50   62.1    31    3.7    95      6.6   818.4    0.00     593    63.2
 148   10:00   64.0    28    2.9   320      6.2   818.3    0.00     591    63.2
 148   10:10   62.9    25    2.2    37      6.6   818.3    0.00     302    63.3

Return to Pioche, Nevada graphs page.


Western Regional Climate Center,wrcc@dri.edu